createdAt,value
2019-06-26T00:02:27.672Z,3.07
2019-06-26T00:06:46.921Z,3.20
2019-06-26T00:11:05.512Z,2.97
2019-06-26T00:15:24.215Z,3.00
2019-06-26T00:19:42.603Z,3.17
2019-06-26T00:24:01.256Z,2.80
2019-06-26T00:28:19.594Z,2.60
2019-06-26T00:32:38.107Z,2.90
2019-06-26T00:36:56.426Z,2.70
2019-06-26T00:41:15.115Z,3.30
2019-06-26T00:45:33.840Z,2.60
2019-06-26T00:49:52.298Z,2.50
2019-06-26T00:54:10.538Z,2.73
2019-06-26T00:58:28.849Z,3.00
2019-06-26T01:02:47.115Z,2.77
2019-06-26T01:07:06.205Z,3.17
2019-06-26T01:11:24.853Z,3.10
2019-06-26T01:15:43.888Z,2.80
2019-06-26T01:20:02.819Z,3.47
2019-06-26T01:24:22.014Z,3.03
2019-06-26T01:28:40.651Z,3.13
2019-06-26T01:32:59.582Z,2.87
2019-06-26T01:37:18.325Z,2.70
2019-06-26T01:41:37.615Z,3.37
2019-06-26T01:45:56.715Z,2.97
2019-06-26T01:50:16.779Z,3.27
2019-06-26T01:54:35.115Z,3.00
2019-06-26T01:58:53.770Z,2.80
2019-06-26T02:03:12.339Z,3.30
2019-06-26T02:07:31.225Z,3.17
2019-06-26T02:11:50.010Z,3.43
2019-06-26T02:16:08.676Z,3.53
2019-06-26T02:20:27.513Z,2.97
2019-06-26T02:24:45.970Z,3.10
2019-06-26T02:29:04.948Z,3.17
2019-06-26T02:33:23.368Z,3.30
2019-06-26T02:37:41.635Z,3.27
2019-06-26T02:41:59.381Z,3.73
2019-06-26T02:46:18.159Z,3.00
2019-06-26T02:50:36.434Z,3.03
2019-06-26T02:54:55.056Z,3.27
2019-06-26T02:59:13.309Z,3.43
2019-06-26T03:03:32.039Z,3.30
2019-06-26T03:07:50.931Z,3.07
2019-06-26T03:12:09.192Z,3.57
2019-06-26T03:16:27.927Z,2.80
2019-06-26T03:20:51.145Z,3.30
2019-06-26T03:25:09.971Z,3.00
2019-06-26T03:29:28.756Z,3.17
2019-06-26T03:33:48.781Z,3.47
2019-06-26T03:38:07.273Z,3.00
2019-06-26T03:42:25.512Z,3.30
2019-06-26T03:46:44.117Z,3.27
2019-06-26T03:51:02.385Z,3.00
2019-06-26T03:55:20.771Z,3.00
2019-06-26T03:59:39.105Z,3.33
2019-06-26T04:03:57.757Z,2.80
2019-06-26T04:08:16.009Z,3.20
2019-06-26T04:12:34.801Z,2.90
2019-06-26T04:16:53.834Z,3.17
2019-06-26T04:21:12.367Z,3.97
2019-06-26T04:25:31.068Z,3.20
2019-06-26T04:29:49.826Z,3.70
2019-06-26T04:34:09.329Z,3.20
2019-06-26T04:38:27.751Z,3.70
2019-06-26T04:42:45.994Z,3.63
2019-06-26T04:47:04.597Z,3.47
2019-06-26T04:51:23.567Z,3.60
2019-06-26T04:55:41.305Z,3.10
2019-06-26T05:00:00.494Z,3.50
2019-06-26T05:04:19.904Z,2.67
2019-06-26T05:08:38.235Z,3.10
2019-06-26T05:12:56.600Z,2.93
2019-06-26T05:17:14.858Z,3.07
2019-06-26T05:21:33.724Z,2.70
2019-06-26T05:25:51.974Z,2.80
2019-06-26T05:30:12.586Z,3.07
2019-06-26T05:34:31.158Z,2.93
2019-06-26T05:38:49.995Z,3.33
2019-06-26T05:43:08.213Z,3.20
2019-06-26T05:47:26.557Z,3.33
2019-06-26T05:51:45.323Z,3.60
2019-06-26T05:56:03.609Z,3.20
2019-06-26T06:00:22.169Z,2.73
2019-06-26T06:04:40.798Z,3.00
2019-06-26T06:08:59.260Z,3.10
2019-06-26T06:13:18.884Z,2.90
2019-06-26T06:17:37.315Z,3.00
2019-06-26T06:21:55.859Z,2.67
2019-06-26T06:26:14.039Z,3.10
2019-06-26T06:30:32.688Z,3.07
2019-06-26T06:35:01.386Z,2.80
2019-06-26T06:39:20.120Z,3.17
2019-06-26T06:43:38.382Z,3.40
2019-06-26T06:47:56.688Z,2.73
2019-06-26T06:52:16.784Z,3.20
2019-06-26T06:56:34.758Z,3.07
2019-06-26T07:00:53.099Z,2.83
2019-06-26T07:05:11.588Z,3.07
2019-06-26T07:09:30.903Z,2.57
2019-06-26T07:13:50.948Z,2.70
2019-06-26T07:18:09.231Z,2.50
2019-06-26T07:22:27.891Z,2.60
2019-06-26T07:26:46.308Z,2.80
2019-06-26T07:31:05.000Z,2.47
2019-06-26T07:35:23.459Z,2.60
2019-06-26T07:39:42.155Z,2.40
2019-06-26T07:44:00.585Z,2.73
2019-06-26T07:48:19.641Z,3.10
2019-06-26T07:52:38.264Z,2.90
2019-06-26T07:56:56.538Z,3.00
2019-06-26T08:01:14.644Z,2.60
2019-06-26T08:05:33.100Z,3.27
2019-06-26T08:09:51.238Z,2.70
2019-06-26T08:14:09.347Z,2.60
2019-06-26T08:18:27.694Z,2.20
2019-06-26T08:22:46.156Z,2.30
2019-06-26T08:27:04.680Z,2.70
2019-06-26T08:31:22.955Z,3.00
2019-06-26T08:35:41.173Z,2.63
2019-06-26T08:39:59.937Z,2.37
2019-06-26T08:44:18.514Z,3.03
2019-06-26T08:48:40.021Z,2.53
2019-06-26T08:52:57.586Z,2.83
2019-06-26T08:57:16.264Z,3.00
2019-06-26T09:01:34.756Z,2.27
2019-06-26T09:05:53.289Z,2.23
2019-06-26T09:10:12.166Z,2.67
2019-06-26T09:14:30.279Z,2.50
2019-06-26T09:18:48.519Z,2.33
2019-06-26T09:23:07.159Z,2.47
2019-06-26T09:27:25.566Z,2.50
2019-06-26T09:31:44.006Z,2.23
2019-06-26T09:36:06.727Z,2.47
2019-06-26T09:40:23.315Z,1.97
2019-06-26T09:44:41.816Z,2.20
2019-06-26T09:49:01.865Z,2.33
2019-06-26T09:53:20.438Z,2.60
2019-06-26T09:57:39.395Z,2.33
2019-06-26T10:01:57.854Z,2.50
2019-06-26T10:06:16.901Z,2.40
2019-06-26T10:10:35.048Z,3.07
2019-06-26T10:14:53.517Z,3.00
2019-06-26T10:19:11.835Z,2.77
2019-06-26T10:23:31.648Z,2.53
2019-06-26T10:27:50.153Z,2.13
2019-06-26T10:32:08.674Z,2.33
2019-06-26T10:36:27.295Z,2.40
2019-06-26T10:40:45.701Z,2.40
2019-06-26T10:45:03.950Z,2.67
2019-06-26T10:49:27.344Z,2.90
2019-06-26T10:53:43.086Z,2.10
2019-06-26T10:58:02.442Z,2.20
2019-06-26T11:02:21.371Z,2.13
2019-06-26T11:06:39.549Z,2.37
2019-06-26T11:10:58.658Z,2.50
2019-06-26T11:15:17.026Z,2.70
2019-06-26T11:19:43.974Z,2.70
2019-06-26T11:23:56.598Z,2.53
2019-06-26T11:28:15.106Z,2.77
2019-06-26T11:32:33.396Z,2.47
2019-06-26T11:37:03.209Z,2.13
2019-06-26T11:41:12.840Z,2.53
2019-06-26T11:45:31.105Z,2.60
2019-06-26T11:49:59.329Z,2.30
2019-06-26T11:54:09.300Z,2.50
2019-06-26T11:58:27.652Z,3.30
2019-06-26T12:02:46.279Z,2.70
2019-06-26T12:07:04.964Z,2.17
2019-06-26T12:11:23.170Z,2.10
2019-06-26T12:15:41.543Z,2.63
2019-06-26T12:20:13.683Z,2.33
2019-06-26T12:24:20.476Z,2.60
2019-06-26T12:28:38.960Z,2.60
2019-06-26T12:33:03.326Z,1.97
2019-06-26T12:37:17.414Z,2.57
2019-06-26T12:41:35.778Z,2.60
2019-06-26T12:45:53.950Z,2.27
2019-06-26T12:50:14.815Z,2.23
2019-06-26T12:54:32.949Z,2.00
2019-06-26T12:58:51.097Z,2.60
2019-06-26T13:03:09.746Z,2.23
2019-06-26T13:07:28.162Z,1.80
2019-06-26T13:11:46.420Z,1.97
2019-06-26T13:16:07.410Z,2.00
2019-06-26T13:20:26.608Z,2.83
2019-06-26T13:24:45.287Z,2.40
2019-06-26T13:29:04.404Z,2.20
2019-06-26T13:33:23.135Z,2.30
2019-06-26T13:37:43.525Z,2.20
2019-06-26T13:42:03.189Z,2.03
2019-06-26T13:46:21.626Z,2.30
2019-06-26T13:50:40.829Z,2.50
2019-06-26T13:54:59.077Z,2.17
2019-06-26T13:59:21.716Z,2.20
2019-06-26T14:03:40.370Z,2.40
2019-06-26T14:07:59.199Z,2.77
2019-06-26T14:12:23.953Z,2.17
2019-06-26T14:16:44.038Z,2.40
2019-06-26T14:21:02.337Z,2.60
2019-06-26T14:25:20.669Z,2.57
2019-06-26T14:29:38.949Z,2.50
2019-06-26T14:34:02.259Z,2.20
2019-06-26T14:38:23.975Z,2.33
2019-06-26T14:42:43.483Z,2.93
2019-06-26T14:47:04.039Z,3.30
2019-06-26T14:51:23.568Z,3.40
2019-06-26T14:55:44.353Z,2.57
2019-06-26T15:00:05.195Z,2.83
2019-06-26T15:04:25.390Z,2.13
2019-06-26T15:08:43.998Z,2.50
2019-06-26T15:13:04.632Z,2.30
2019-06-26T15:17:25.161Z,2.80
2019-06-26T15:21:57.916Z,2.53
2019-06-26T15:26:05.321Z,2.60
2019-06-26T15:30:23.917Z,2.80
2019-06-26T15:34:42.165Z,2.30
2019-06-26T15:39:00.398Z,2.33
2019-06-26T15:43:20.548Z,2.50
2019-06-26T15:47:39.170Z,2.13
2019-06-26T15:52:13.799Z,2.47
2019-06-26T15:56:18.463Z,2.67
2019-06-26T16:00:37.344Z,2.30
2019-06-26T16:04:56.125Z,2.10
2019-06-26T16:09:14.433Z,2.60
2019-06-26T16:13:35.456Z,2.60
2019-06-26T16:18:04.688Z,2.97
2019-06-26T16:22:32.079Z,3.50
2019-06-26T16:26:42.804Z,3.50
2019-06-26T16:31:01.345Z,2.90
2019-06-26T16:35:20.763Z,2.53
2019-06-26T16:39:39.525Z,3.03
2019-06-26T16:43:57.873Z,2.60
2019-06-26T16:48:21.250Z,2.37
2019-06-26T16:52:49.153Z,2.27
2019-06-26T16:56:59.988Z,2.50
2019-06-26T17:01:18.993Z,2.30
2019-06-26T17:05:38.572Z,2.50
2019-06-26T17:09:57.786Z,2.77
2019-06-26T17:14:17.415Z,2.30
2019-06-26T17:18:35.802Z,2.37
2019-06-26T17:23:05.266Z,2.57
2019-06-26T17:27:14.067Z,2.27
2019-06-26T17:31:32.502Z,2.40
2019-06-26T17:35:51.196Z,2.90
2019-06-26T17:40:10.643Z,2.27
2019-06-26T17:44:28.987Z,2.33
2019-06-26T17:48:47.346Z,2.10
2019-06-26T17:53:20.665Z,2.50
2019-06-26T17:57:25.843Z,2.10
2019-06-26T18:01:44.240Z,2.70
2019-06-26T18:06:02.420Z,2.10
2019-06-26T18:10:22.427Z,2.17
2019-06-26T18:14:43.346Z,2.10
2019-06-26T18:19:01.542Z,2.30
2019-06-26T18:23:19.692Z,2.10
2019-06-26T18:27:37.953Z,1.87
2019-06-26T18:31:56.185Z,2.67
2019-06-26T18:36:14.823Z,2.30
2019-06-26T18:40:33.392Z,2.60
2019-06-26T18:44:52.480Z,2.40
2019-06-26T18:49:10.956Z,2.47
2019-06-26T18:53:29.266Z,2.90
2019-06-26T18:57:47.522Z,2.70
2019-06-26T19:02:08.511Z,2.70
2019-06-26T19:06:26.562Z,2.90
2019-06-26T19:10:45.621Z,2.80
2019-06-26T19:15:04.403Z,2.87
2019-06-26T19:19:23.100Z,3.00
2019-06-26T19:23:41.866Z,2.97
2019-06-26T19:28:00.182Z,3.10
2019-06-26T19:32:18.975Z,3.00
2019-06-26T19:36:49.534Z,3.37
2019-06-26T19:41:00.271Z,2.70
2019-06-26T19:45:19.742Z,2.90
2019-06-26T19:49:41.329Z,2.60
2019-06-26T19:54:03.373Z,2.80
2019-06-26T19:58:22.008Z,2.70
2019-06-26T20:02:40.350Z,3.17
2019-06-26T20:06:58.774Z,3.27
2019-06-26T20:11:18.444Z,2.90
2019-06-26T20:15:37.657Z,2.90
2019-06-26T20:19:56.287Z,2.97
2019-06-26T20:24:14.819Z,3.13
2019-06-26T20:28:33.658Z,3.20
2019-06-26T20:32:52.315Z,3.03
2019-06-26T20:37:10.744Z,2.83
2019-06-26T20:41:29.102Z,3.53
2019-06-26T20:45:48.402Z,3.60
2019-06-26T20:50:07.141Z,2.90
2019-06-26T20:54:25.440Z,2.60
2019-06-26T20:58:43.587Z,3.07
2019-06-26T21:03:01.934Z,3.07
2019-06-26T21:07:20.384Z,2.93
2019-06-26T21:11:38.606Z,3.23
2019-06-26T21:15:57.023Z,3.40
2019-06-26T21:20:15.379Z,3.60
2019-06-26T21:24:36.226Z,3.00
2019-06-26T21:28:54.924Z,3.17
2019-06-26T21:33:13.202Z,3.60
2019-06-26T21:37:31.828Z,3.67
2019-06-26T21:41:50.010Z,3.90
2019-06-26T21:46:08.153Z,3.30
2019-06-26T21:50:29.137Z,4.23
2019-06-26T21:54:46.906Z,3.67
2019-06-26T21:59:23.456Z,3.40
2019-06-26T22:04:00.035Z,3.23
2019-06-26T22:08:30.101Z,3.40
2019-06-26T22:12:51.220Z,3.60
2019-06-26T22:17:10.953Z,3.83
2019-06-26T22:21:30.610Z,4.40
2019-06-26T22:25:51.427Z,3.60
2019-06-26T22:30:11.782Z,4.53
2019-06-26T22:34:31.041Z,4.47
2019-06-26T22:38:49.549Z,4.83
2019-06-26T22:43:07.946Z,4.47
2019-06-26T22:47:26.778Z,4.17
2019-06-26T22:51:45.331Z,4.33
2019-06-26T22:56:07.941Z,4.70
2019-06-26T23:00:24.893Z,5.17
2019-06-26T23:04:43.681Z,5.53
2019-06-26T23:09:02.137Z,4.90
2019-06-26T23:13:21.795Z,4.50
2019-06-26T23:17:40.586Z,4.53
2019-06-26T23:21:58.841Z,4.13
2019-06-26T23:26:24.000Z,4.40
2019-06-26T23:30:37.437Z,4.93
2019-06-26T23:34:56.134Z,4.60
2019-06-26T23:39:14.527Z,5.23
2019-06-26T23:43:33.478Z,5.17
2019-06-26T23:47:52.189Z,4.60
2019-06-26T23:52:10.510Z,4.33
2019-06-26T23:56:40.117Z,4.53
